Time;durP1;ratioP1;P1;durP2;ratioP2;P2;SDS_P1;SDS_P2;PMS_P1;PMS_P2;Temp;Humidity;BMP_temperature;BMP_pressure;BME280_temperature;BME280_humidity;BME280_pressure;Samples;Min_cycle;Max_cycle;Signal;HPM_P1;HPM_P2
2021/08/30 00:01:50;;;;;;;11.95;9.25;;;;;;;19.55;100.00;98235.36;1869835;76;22572;-57
2021/08/30 00:04:44;;;;;;;13.83;9.08;;;;;;;19.60;100.00;98230.80;1870705;76;22188;-57
2021/08/30 00:07:37;;;;;;;15.90;9.35;;;;;;;19.66;100.00;98229.25;1870631;76;22141;-56
2021/08/30 00:10:12;;;;;;;13.40;9.58;;;;;;;19.66;100.00;98235.80;1889980;76;22534;-54
2021/08/30 00:12:49;;;;;;;16.57;9.35;;;;;;;19.67;100.00;98231.02;1834936;77;22175;-57
2021/08/30 00:15:25;;;;;;;17.07;9.68;;;;;;;19.63;100.00;98229.38;1890004;76;22157;-55
2021/08/30 00:18:00;;;;;;;15.80;9.53;;;;;;;19.59;100.00;98234.77;1870728;76;22117;-57
2021/08/30 00:20:35;;;;;;;12.20;9.18;;;;;;;19.57;100.00;98234.85;1870681;76;22149;-56
2021/08/30 00:23:30;;;;;;;14.20;9.93;;;;;;;19.55;100.00;98237.12;1870681;76;22148;-53
2021/08/30 00:26:04;;;;;;;15.20;9.08;;;;;;;19.52;100.00;98232.86;1870713;76;22190;-58
2021/08/30 00:28:40;;;;;;;13.15;9.20;;;;;;;19.49;100.00;98234.29;1890015;76;20097;-56
2021/08/30 00:31:34;;;;;;;12.95;8.83;;;;;;;19.47;100.00;98232.17;1870614;76;22539;-54
2021/08/30 00:34:09;;;;;;;12.85;10.10;;;;;;;19.45;100.00;98239.22;1889991;76;22123;-55
2021/08/30 00:37:04;;;;;;;15.45;10.20;;;;;;;19.42;100.00;98241.96;1870710;76;22136;-55
2021/08/30 00:39:38;;;;;;;15.28;9.55;;;;;;;19.36;100.00;98240.42;1870699;76;22137;-55
2021/08/30 00:42:14;;;;;;;14.50;9.43;;;;;;;19.32;100.00;98254.52;1890098;76;22132;-56
2021/08/30 00:45:10;;;;;;;15.55;10.63;;;;;;;19.25;100.00;98248.63;1889918;76;22535;-57
2021/08/30 00:47:46;;;;;;;14.43;10.75;;;;;;;19.22;100.00;98253.14;1870704;76;22547;-56
2021/08/30 00:50:22;;;;;;;16.42;9.70;;;;;;;19.17;100.00;98249.83;1870709;76;20458;-59
2021/08/30 00:52:57;;;;;;;14.15;9.18;;;;;;;19.14;100.00;98247.33;1854946;76;27938;-58
2021/08/30 00:55:39;;;;;;;12.75;9.88;;;;;;;19.17;100.00;98245.91;1889932;76;22205;-56
2021/08/30 00:58:20;;;;;;;14.63;9.33;;;;;;;19.17;100.00;98253.75;1889933;76;22583;-58
2021/08/30 01:01:14;;;;;;;15.48;10.40;;;;;;;19.16;100.00;98248.98;1889932;76;22276;-55
2021/08/30 01:04:13;;;;;;;15.40;10.28;;;;;;;19.15;100.00;98255.56;1870613;76;22121;-57
2021/08/30 01:07:05;;;;;;;14.18;10.65;;;;;;;19.12;100.00;98256.98;1870691;76;22148;-56
2021/08/30 01:09:54;;;;;;;13.78;10.32;;;;;;;19.11;100.00;98255.25;1870653;76;22144;-54
2021/08/30 01:13:00;;;;;;;16.40;10.65;;;;;;;19.08;100.00;98254.91;1889955;76;22163;-58
2021/08/30 01:15:48;;;;;;;18.90;10.50;;;;;;;19.06;100.00;98248.91;1889970;76;22133;-59
2021/08/30 01:18:28;;;;;;;14.95;9.93;;;;;;;19.03;100.00;98249.86;1870710;76;22156;-56
2021/08/30 01:21:20;;;;;;;18.00;9.45;;;;;;;19.02;100.00;98240.29;1870746;76;22153;-58
2021/08/30 01:24:05;;;;;;;14.15;9.58;;;;;;;19.03;100.00;98245.06;1870661;76;22551;-55
2021/08/30 01:26:51;;;;;;;15.80;10.32;;;;;;;19.00;100.00;98242.56;1870621;76;22161;-59
2021/08/30 01:29:36;;;;;;;14.60;10.00;;;;;;;18.98;100.00;98243.06;1889979;76;22136;-59
2021/08/30 01:32:42;;;;;;;15.20;9.50;;;;;;;18.95;100.00;98244.48;1870456;76;22148;-58
2021/08/30 01:35:26;;;;;;;15.78;10.18;;;;;;;18.90;100.00;98236.79;1870650;76;22141;-56
2021/08/30 01:38:06;;;;;;;16.85;10.03;;;;;;;18.87;100.00;98230.36;1890004;76;22196;-58
2021/08/30 01:40:43;;;;;;;13.68;9.60;;;;;;;18.83;100.00;98227.02;1870621;76;22136;-57
2021/08/30 01:43:18;;;;;;;12.58;8.88;;;;;;;18.81;100.00;98227.52;1870682;76;22520;-56
2021/08/30 01:45:55;;;;;;;14.13;9.28;;;;;;;18.80;100.00;98241.50;1854899;76;27926;-58
2021/08/30 01:48:51;;;;;;;13.83;8.48;;;;;;;18.83;100.00;98241.39;1854578;76;28330;-58
2021/08/30 01:51:28;;;;;;;15.08;9.20;;;;;;;18.86;100.00;98246.52;1870570;76;22219;-60
2021/08/30 01:54:24;;;;;;;17.65;8.83;;;;;;;18.84;100.00;98261.39;1889959;76;22104;-57
2021/08/30 01:56:59;;;;;;;12.35;8.20;;;;;;;18.82;100.00;98259.73;1889980;76;22136;-59
2021/08/30 02:02:27;;;;;;;12.60;8.65;;;;;;;18.81;100.00;98258.88;1870812;76;22109;-58
2021/08/30 02:05:21;;;;;;;13.72;8.40;;;;;;;18.80;100.00;98275.48;1889950;76;22119;-61
2021/08/30 02:07:56;;;;;;;12.73;8.08;;;;;;;18.80;100.00;98265.03;1889981;76;22528;-57
2021/08/30 02:10:31;;;;;;;13.72;9.25;;;;;;;18.81;100.00;98268.49;1870692;76;22589;-58
2021/08/30 02:13:28;;;;;;;12.50;8.53;;;;;;;18.81;100.00;98278.48;1889885;76;22148;-58
2021/08/30 02:16:04;;;;;;;12.63;7.80;;;;;;;18.82;100.00;98275.42;1870716;76;22570;-59
2021/08/30 02:18:45;;;;;;;15.83;8.48;;;;;;;18.82;100.00;98278.87;1870737;76;20097;-60
2021/08/30 02:21:48;;;;;;;12.00;8.58;;;;;;;18.85;100.00;98318.02;1870691;76;22540;-60
2021/08/30 02:25:07;;;;;;;14.55;7.95;;;;;;;18.89;100.00;98317.91;1872919;75;22233;-58
2021/08/30 02:27:51;;;;;;;17.25;9.50;;;;;;;18.90;100.00;98313.91;1870542;76;22144;-60
2021/08/30 02:30:44;;;;;;;14.55;9.33;;;;;;;18.93;100.00;98316.88;1870701;76;22152;-58
2021/08/30 02:33:21;;;;;;;17.50;8.98;;;;;;;18.92;100.00;98316.49;1870683;76;22101;-60
2021/08/30 02:36:18;;;;;;;17.52;10.35;;;;;;;18.90;100.00;98316.53;1889977;76;22132;-58
2021/08/30 02:39:13;;;;;;;14.43;9.48;;;;;;;18.90;100.00;98309.14;1870486;76;22149;-60
2021/08/30 02:41:51;;;;;;;14.00;9.58;;;;;;;18.88;100.00;98300.06;1873898;76;38630;-59
2021/08/30 02:44:26;;;;;;;14.05;9.00;;;;;;;18.93;100.00;98299.89;1870669;76;22133;-57
2021/08/30 02:47:21;;;;;;;12.20;8.45;;;;;;;18.92;100.00;98308.66;1870603;76;22144;-58
2021/08/30 02:49:57;;;;;;;13.65;9.00;;;;;;;18.89;100.00;98299.61;1870699;76;22109;-57
2021/08/30 02:52:34;;;;;;;12.73;8.08;;;;;;;18.86;100.00;98289.65;1870696;76;22547;-61
2021/08/30 02:55:10;;;;;;;16.57;9.15;;;;;;;18.83;100.00;98297.60;1873899;76;28331;-58
2021/08/30 02:57:48;;;;;;;15.78;8.68;;;;;;;18.83;100.00;98301.98;1855099;76;28014;-57
2021/08/30 03:00:20;;;;;;;14.60;9.08;;;;;;;18.86;100.00;98304.03;1889968;76;20462;-59
2021/08/30 03:02:55;;;;;;;13.05;8.48;;;;;;;18.80;100.00;98302.94;1854793;76;27960;-57
2021/08/30 03:05:33;;;;;;;11.97;7.83;;;;;;;18.82;100.00;98296.33;1870571;76;22175;-60
2021/08/30 03:08:33;;;;;;;13.28;8.83;;;;;;;18.75;100.00;98300.02;1869818;76;22141;-55
2021/08/30 03:11:29;;;;;;;11.60;8.38;;;;;;;18.69;100.00;98293.69;1870708;76;22165;-56
2021/08/30 03:14:26;;;;;;;10.95;7.95;;;;;;;18.62;100.00;98291.72;1889905;76;22139;-60
2021/08/30 03:17:04;;;;;;;15.30;8.65;;;;;;;18.58;100.00;98297.97;1870701;76;22120;-56
2021/08/30 03:19:42;;;;;;;14.90;9.55;;;;;;;18.55;100.00;98295.46;1870678;76;22129;-55
2021/08/30 03:22:41;;;;;;;20.88;9.93;;;;;;;18.52;100.00;98292.92;1870593;76;22567;-56
2021/08/30 03:25:42;;;;;;;15.72;11.48;;;;;;;18.51;100.00;98293.84;1889829;76;22194;-58
2021/08/30 03:28:18;;;;;;;15.70;11.83;;;;;;;18.49;100.00;98294.33;1870818;76;22113;-56
2021/08/30 03:30:54;;;;;;;19.45;11.43;;;;;;;18.51;100.00;98301.22;1870659;76;22105;-61
2021/08/30 03:33:31;;;;;;;14.33;10.72;;;;;;;18.51;100.00;98295.14;1870598;76;22159;-59
2021/08/30 03:36:07;;;;;;;16.25;11.05;;;;;;;18.51;100.00;98289.91;1889964;76;22136;-59
2021/08/30 03:39:01;;;;;;;17.75;10.40;;;;;;;18.51;100.00;98296.45;1870612;76;22149;-55
2021/08/30 03:41:39;;;;;;;14.68;9.98;;;;;;;18.51;100.00;98292.53;1854708;76;38234;-54
2021/08/30 03:44:36;;;;;;;17.02;10.13;;;;;;;18.57;100.00;98295.81;1889968;76;22132;-55
2021/08/30 03:47:30;;;;;;;12.98;9.48;;;;;;;18.57;100.00;98284.48;1890056;76;22136;-57
2021/08/30 03:50:25;;;;;;;14.63;9.68;;;;;;;18.54;100.00;98275.44;1870613;76;22524;-60
2021/08/30 03:53:01;;;;;;;13.78;9.53;;;;;;;18.53;100.00;98277.66;1854876;76;28094;-58
2021/08/30 03:55:38;;;;;;;12.78;9.83;;;;;;;18.56;100.00;98286.24;1889947;76;22140;-60
2021/08/30 03:58:34;;;;;;;14.47;9.23;;;;;;;18.58;100.00;98278.37;1870603;76;20204;-59
2021/08/30 04:01:09;;;;;;;13.93;10.05;;;;;;;18.57;100.00;98277.95;1850778;77;22131;-59
2021/08/30 04:03:48;;;;;;;19.48;10.40;;;;;;;18.56;100.00;98271.87;1870664;76;22148;-60
2021/08/30 04:06:46;;;;;;;16.87;10.30;;;;;;;18.54;100.00;98272.83;1870621;76;22113;-59
2021/08/30 04:09:22;;;;;;;16.20;10.63;;;;;;;18.53;100.00;98264.59;1889987;76;22544;-61
2021/08/30 04:11:57;;;;;;;18.15;11.38;;;;;;;18.52;100.00;98272.02;1870642;76;22137;-60
2021/08/30 04:14:33;;;;;;;22.82;11.20;;;;;;;18.51;100.00;98276.84;1870780;76;22164;-58
2021/08/30 04:17:08;;;;;;;15.38;10.58;;;;;;;18.51;100.00;98274.23;1870585;76;22113;-58
2021/08/30 04:20:04;;;;;;;23.35;12.28;;;;;;;18.52;100.00;98268.98;1870453;76;22132;-56
2021/08/30 04:22:40;;;;;;;14.43;10.63;;;;;;;18.52;100.00;98287.27;1889952;76;22546;-60
2021/08/30 04:25:15;;;;;;;17.23;11.48;;;;;;;18.58;100.00;98277.06;1870726;76;22193;-59
2021/08/30 04:28:10;;;;;;;19.75;10.95;;;;;;;18.63;100.00;98276.45;1870469;76;22136;-56
2021/08/30 04:30:44;;;;;;;17.42;11.08;;;;;;;18.69;100.00;98276.25;1870780;76;22108;-61
2021/08/30 04:33:22;;;;;;;18.07;10.75;;;;;;;18.75;100.00;98269.95;1870680;76;22165;-59
2021/08/30 04:35:55;;;;;;;17.82;10.28;;;;;;;18.78;100.00;98270.76;1854992;76;28157;-60
2021/08/30 04:38:30;;;;;;;15.25;9.50;;;;;;;18.87;100.00;98270.42;1870665;76;22133;-55
2021/08/30 04:41:13;;;;;;;14.90;9.55;;;;;;;18.94;100.00;98274.16;1869793;76;22160;-59
2021/08/30 04:43:49;;;;;;;14.33;8.53;;;;;;;18.98;100.00;98283.16;1870873;76;20188;-56
2021/08/30 04:46:24;;;;;;;14.98;9.08;;;;;;;19.02;100.00;98299.59;1889989;76;22171;-55
2021/08/30 04:48:58;;;;;;;14.55;9.35;;;;;;;19.06;100.00;98312.98;1889923;76;22173;-57
2021/08/30 04:51:34;;;;;;;14.83;9.45;;;;;;;19.12;100.00;98329.76;1854550;76;27945;-56
2021/08/30 04:54:09;;;;;;;16.42;8.73;;;;;;;19.18;100.00;98334.77;1870651;76;22109;-62
2021/08/30 04:56:43;;;;;;;11.97;8.53;;;;;;;19.22;100.00;98342.08;1889932;76;22554;-53
2021/08/30 04:59:19;;;;;;;16.82;8.93;;;;;;;19.22;100.00;98343.38;1870538;76;22248;-61
2021/08/30 05:01:54;;;;;;;16.82;8.53;;;;;;;19.26;100.00;98340.62;1870535;76;22148;-59
2021/08/30 05:04:28;;;;;;;12.70;8.73;;;;;;;19.53;100.00;98328.77;1889926;76;22578;-60
2021/08/30 05:07:03;;;;;;;20.50;9.43;;;;;;;19.64;100.00;98313.55;1889905;76;22127;-57
2021/08/30 05:09:38;;;;;;;15.35;9.30;;;;;;;20.02;98.93;98289.48;1870610;76;22574;-58
2021/08/30 05:12:14;;;;;;;16.10;9.28;;;;;;;20.23;97.39;98282.59;1873826;76;27946;-58
2021/08/30 05:14:48;;;;;;;11.93;9.08;;;;;;;20.26;96.43;98273.30;1870626;76;22146;-58
2021/08/30 05:17:24;;;;;;;17.02;9.83;;;;;;;20.30;96.34;98277.48;1873548;76;28528;-59
2021/08/30 05:20:00;;;;;;;16.85;10.13;;;;;;;20.40;95.76;98277.52;1854614;76;28344;-61
2021/08/30 05:22:54;;;;;;;16.57;9.18;;;;;;;20.46;94.87;98298.25;1860225;76;22263;-60
2021/08/30 05:25:29;;;;;;;13.60;9.65;;;;;;;20.39;94.35;98299.41;1870528;76;22132;-59
2021/08/30 05:28:04;;;;;;;20.15;9.83;;;;;;;20.30;94.50;98280.98;1889772;76;22270;-60
2021/08/30 05:30:59;;;;;;;16.00;9.25;;;;;;;20.34;94.56;98261.58;1870408;76;22160;-61
2021/08/30 05:33:36;;;;;;;16.60;9.13;;;;;;;20.25;94.53;98270.26;1873474;76;22635;-62
2021/08/30 05:36:12;;;;;;;13.95;9.50;;;;;;;20.18;94.66;98264.89;1852623;76;22573;-60
2021/08/30 05:39:07;;;;;;;18.52;9.10;;;;;;;20.05;94.88;98260.12;1856173;76;22179;-56
2021/08/30 05:41:43;;;;;;;15.08;10.00;;;;;;;19.97;95.48;98256.92;1837979;76;28228;-58
2021/08/30 05:44:18;;;;;;;15.75;9.98;;;;;;;19.99;95.65;98236.77;1871722;76;27973;-55
2021/08/30 05:46:53;;;;;;;14.45;8.88;;;;;;;20.01;95.72;98272.92;1869777;76;22167;-57
2021/08/30 05:49:28;;;;;;;17.82;9.83;;;;;;;20.02;95.87;98290.80;1870406;76;22168;-61
2021/08/30 05:52:12;;;;;;;21.70;9.98;;;;;;;20.19;96.02;98292.31;1869665;76;22189;-60
2021/08/30 05:55:06;;;;;;;15.27;9.67;;;;;;;20.61;94.10;98271.91;1845779;76;28080;-61
2021/08/30 05:58:00;;;;;;;14.23;9.18;;;;;;;21.02;92.27;98267.55;1880223;76;22164;-59
2021/08/30 06:00:34;;;;;;;15.00;9.50;;;;;;;21.12;90.54;98266.71;1864064;76;22155;-62
2021/08/30 06:03:09;;;;;;;15.55;8.55;;;;;;;20.98;90.10;98281.70;1849386;76;22171;-59
2021/08/30 06:05:45;;;;;;;14.47;9.88;;;;;;;20.85;90.42;98284.45;1873771;76;27918;-60
2021/08/30 06:08:19;;;;;;;15.43;9.08;;;;;;;20.80;90.65;98285.11;1889810;76;22167;-59
2021/08/30 06:11:00;;;;;;;14.40;9.30;;;;;;;20.65;90.80;98274.78;1884029;76;22182;-57
2021/08/30 06:13:34;;;;;;;15.60;9.85;;;;;;;20.52;91.17;98262.61;1855769;76;22176;-59
2021/08/30 06:16:30;;;;;;;17.75;9.43;;;;;;;20.47;91.58;98246.22;1854351;76;28515;-56
2021/08/30 06:19:06;;;;;;;17.02;10.40;;;;;;;20.71;91.36;98234.34;1854542;76;27920;-57
2021/08/30 06:21:40;;;;;;;15.58;8.78;;;;;;;20.96;90.21;98228.48;1870549;76;22172;-59
2021/08/30 06:24:15;;;;;;;17.20;9.15;;;;;;;21.05;89.76;98225.06;1870452;76;22133;-58
2021/08/30 06:27:09;;;;;;;20.32;9.53;;;;;;;21.38;88.08;98228.84;1858765;76;22155;-61
2021/08/30 06:29:45;;;;;;;14.93;9.95;;;;;;;21.40;87.50;98224.39;1868560;76;22173;-60
2021/08/30 06:32:20;;;;;;;18.12;9.08;;;;;;;21.36;87.22;98229.34;1852508;76;20116;-58
2021/08/30 06:34:56;;;;;;;16.25;9.85;;;;;;;21.56;86.24;98225.85;1838096;76;28226;-57
2021/08/30 06:37:49;;;;;;;16.70;8.58;;;;;;;22.50;83.23;98234.60;1835508;76;22552;-59
2021/08/30 06:40:24;;;;;;;15.38;8.58;;;;;;;23.35;79.72;98235.13;1854558;76;22196;-59
2021/08/30 06:42:59;;;;;;;14.70;9.20;;;;;;;23.60;77.18;98243.42;1849274;76;22159;-61
2021/08/30 06:45:34;;;;;;;17.52;9.48;;;;;;;23.21;77.24;98262.19;1869080;76;22193;-58
2021/08/30 06:48:08;;;;;;;18.10;9.58;;;;;;;22.79;78.61;98275.23;1859175;76;22197;-61
2021/08/30 06:50:43;;;;;;;12.50;8.93;;;;;;;22.44;78.57;98255.48;1851082;76;22228;-61
2021/08/30 06:53:18;;;;;;;19.00;9.75;;;;;;;22.18;80.35;98246.16;1856374;76;22618;-58
2021/08/30 06:55:53;;;;;;;16.35;10.20;;;;;;;22.00;81.06;98257.55;1853435;76;22601;-56
2021/08/30 06:58:27;;;;;;;20.05;10.60;;;;;;;21.85;81.08;98252.11;1861973;76;22194;-58
2021/08/30 07:01:21;;;;;;;16.40;9.28;;;;;;;21.85;81.49;98263.94;1858583;76;22182;-60
2021/08/30 07:03:56;;;;;;;17.77;10.30;;;;;;;21.97;81.50;98268.22;1855419;76;22607;-60
2021/08/30 07:06:37;;;;;;;20.35;10.63;;;;;;;22.02;80.47;98258.34;1869750;76;22165;-57
2021/08/30 07:09:12;;;;;;;14.70;9.28;;;;;;;22.16;79.43;98250.67;1889853;76;22132;-60
2021/08/30 07:11:48;;;;;;;25.95;10.72;;;;;;;22.20;79.69;98256.19;1870546;76;22137;-61
2021/08/30 07:14:23;;;;;;;17.42;9.88;;;;;;;22.19;79.51;98258.44;1890004;76;20255;-57
2021/08/30 07:17:18;;;;;;;17.67;10.40;;;;;;;22.24;79.43;98269.58;1864721;76;22202;-58
2021/08/30 07:19:53;;;;;;;16.17;10.13;;;;;;;22.18;79.52;98257.99;1889835;76;22577;-61
2021/08/30 07:22:46;;;;;;;18.12;10.40;;;;;;;22.10;79.39;98257.52;1889696;76;22119;-59
2021/08/30 07:25:21;;;;;;;17.55;11.03;;;;;;;22.17;79.07;98264.19;1889854;76;22100;-60
2021/08/30 07:28:15;;;;;;;17.30;10.55;;;;;;;22.17;78.33;98249.73;1862400;76;22563;-59
2021/08/30 07:30:50;;;;;;;23.30;11.28;;;;;;;22.26;78.32;98250.66;1857238;76;22128;-60
2021/08/30 07:33:25;;;;;;;16.93;9.53;;;;;;;22.39;77.76;98244.34;1866442;76;22187;-52
2021/08/30 07:36:21;;;;;;;24.27;11.28;;;;;;;22.74;76.34;98250.50;1862039;76;22172;-59
2021/08/30 07:39:04;;;;;;;22.07;11.85;;;;;;;22.87;75.97;98247.22;1870653;76;22178;-59
2021/08/30 07:41:57;;;;;;;24.98;11.18;;;;;;;22.95;75.66;98239.34;1856014;76;22586;-61
2021/08/30 07:44:33;;;;;;;21.53;12.80;;;;;;;23.04;74.27;98235.41;1836281;76;27933;-57
2021/08/30 07:47:28;;;;;;;21.57;11.15;;;;;;;23.25;74.19;98243.13;1855200;76;22595;-54
2021/08/30 07:50:12;;;;;;;20.62;12.65;;;;;;;23.38;73.64;98251.63;1854754;76;22276;-62
2021/08/30 07:53:06;;;;;;;16.60;10.58;;;;;;;23.54;72.98;98263.52;1861430;76;22222;-60
2021/08/30 07:55:59;;;;;;;18.70;10.93;;;;;;;23.66;72.83;98263.34;1859038;76;22157;-61
2021/08/30 07:58:54;;;;;;;21.70;12.00;;;;;;;23.88;71.38;98270.11;1854987;76;22186;-57
2021/08/30 08:01:37;;;;;;;21.90;11.70;;;;;;;23.70;72.10;98262.70;1862383;76;22247;-60
2021/08/30 08:04:12;;;;;;;22.73;12.23;;;;;;;24.12;71.14;98250.76;1855204;76;22168;-58
2021/08/30 08:06:47;;;;;;;19.87;11.93;;;;;;;24.14;69.86;98273.94;1863949;76;22214;-60
2021/08/30 08:09:22;;;;;;;18.85;11.85;;;;;;;23.86;70.91;98272.81;1866804;75;22228;-55
2021/08/30 08:11:58;;;;;;;19.45;12.00;;;;;;;23.75;71.80;98272.08;1851947;76;22175;-59
2021/08/30 08:14:35;;;;;;;18.25;12.03;;;;;;;24.41;70.14;98277.67;1827578;76;28020;-62
2021/08/30 08:17:16;;;;;;;18.17;11.22;;;;;;;25.08;68.64;98283.50;1869200;76;22160;-61
2021/08/30 08:20:13;;;;;;;20.43;10.72;;;;;;;25.17;67.76;98283.48;1848509;76;22592;-54
2021/08/30 08:22:49;;;;;;;19.12;11.70;;;;;;;25.13;67.93;98281.91;1851872;76;22223;-62
2021/08/30 08:25:49;;;;;;;19.62;11.85;;;;;;;25.36;66.72;98260.75;1860765;76;22625;-59
2021/08/30 08:28:44;;;;;;;15.63;11.10;;;;;;;25.45;66.12;98267.29;1854832;76;22752;-60
2021/08/30 08:31:26;;;;;;;17.48;11.40;;;;;;;25.23;66.24;98261.97;1859181;76;22181;-60
2021/08/30 08:34:02;;;;;;;17.35;10.82;;;;;;;24.94;67.06;98264.16;1866685;76;22170;-57
2021/08/30 08:37:07;;;;;;;20.20;11.95;;;;;;;25.56;66.35;98244.53;1855545;76;22642;-60
2021/08/30 08:40:01;;;;;;;19.85;11.97;;;;;;;25.91;62.56;98260.03;1855266;76;22605;-62
2021/08/30 08:42:55;;;;;;;20.20;12.55;;;;;;;25.59;63.46;98252.73;1857714;76;22164;-60
2021/08/30 08:45:31;;;;;;;23.35;13.00;;;;;;;25.37;63.90;98247.95;1837964;76;28459;-58
2021/08/30 08:48:06;;;;;;;19.55;12.05;;;;;;;25.99;61.88;98247.64;1841481;76;22160;-58
2021/08/30 08:50:44;;;;;;;23.52;12.80;;;;;;;26.44;60.56;98255.37;1852338;76;28086;-62
2021/08/30 08:53:20;;;;;;;17.30;11.20;;;;;;;26.89;60.27;98254.14;1854746;76;22106;-58
2021/08/30 08:56:27;;;;;;;25.20;12.85;;;;;;;26.60;59.68;98259.58;1870846;76;22645;-60
2021/08/30 08:59:02;;;;;;;21.00;12.53;;;;;;;25.95;60.31;98261.99;1855157;76;22391;-55
2021/08/30 09:01:40;;;;;;;18.95;12.58;;;;;;;25.67;61.99;98246.53;1851558;76;22202;-58
2021/08/30 09:04:35;;;;;;;21.48;12.33;;;;;;;25.63;63.46;98247.66;1852579;76;22333;-62
2021/08/30 09:07:42;;;;;;;17.90;12.13;;;;;;;26.03;62.42;98265.02;1853357;76;22182;-58
2021/08/30 09:10:20;;;;;;;22.62;13.03;;;;;;;26.29;62.11;98253.25;1835487;76;27932;-60
2021/08/30 09:13:07;;;;;;;17.55;11.95;;;;;;;26.19;61.48;98236.64;1853065;76;22241;-55
2021/08/30 09:15:43;;;;;;;21.95;12.05;;;;;;;26.09;61.58;98222.31;1864554;76;22619;-62
2021/08/30 09:18:18;;;;;;;22.80;12.93;;;;;;;26.14;60.68;98237.41;1839193;76;28587;-61
2021/08/30 09:20:54;;;;;;;19.65;12.58;;;;;;;26.02;61.50;98234.70;1831821;76;28033;-57
2021/08/30 09:23:41;;;;;;;20.80;12.63;;;;;;;26.03;61.61;98235.94;1861586;76;22171;-59
2021/08/30 09:26:30;;;;;;;23.42;13.05;;;;;;;25.78;61.54;98261.72;1857057;76;22574;-60
2021/08/30 09:29:09;;;;;;;22.73;13.28;;;;;;;25.52;62.06;98262.02;1834887;76;27970;-57
2021/08/30 09:32:07;;;;;;;17.15;13.20;;;;;;;25.43;63.12;98253.32;1853968;76;22167;-60
2021/08/30 09:34:47;;;;;;;27.42;13.43;;;;;;;25.37;63.88;98219.37;1858589;76;22252;-60
2021/08/30 09:37:25;;;;;;;20.48;13.25;;;;;;;25.49;63.25;98245.00;1863673;76;22596;-62
2021/08/30 09:40:04;;;;;;;21.90;13.28;;;;;;;25.46;63.01;98246.05;1870421;76;22270;-61
2021/08/30 09:42:57;;;;;;;34.33;15.13;;;;;;;25.39;62.98;98243.88;1851127;76;22249;-58
2021/08/30 09:45:44;;;;;;;20.20;13.90;;;;;;;25.29;63.19;98231.24;1848361;76;22763;-60
2021/08/30 09:48:26;;;;;;;21.62;12.90;;;;;;;25.27;63.08;98237.56;1853510;76;22262;-60
2021/08/30 09:51:24;;;;;;;23.47;13.45;;;;;;;25.34;63.50;98225.69;1854668;76;22154;-61
2021/08/30 09:54:20;;;;;;;18.87;12.53;;;;;;;25.54;63.51;98229.27;1852818;76;22581;-56
2021/08/30 09:57:15;;;;;;;22.77;12.82;;;;;;;25.77;62.53;98235.77;1842970;76;22171;-60
2021/08/30 10:00:11;;;;;;;23.18;14.13;;;;;;;26.03;61.68;98232.42;1840748;76;28629;-56
2021/08/30 10:02:57;;;;;;;22.27;13.22;;;;;;;26.19;60.75;98232.67;1864003;76;22812;-58
2021/08/30 10:05:31;;;;;;;31.77;12.93;;;;;;;26.01;61.11;98252.38;1889301;76;22318;-61
2021/08/30 10:08:07;;;;;;;23.67;13.58;;;;;;;25.89;61.75;98258.42;1889525;76;22151;-56
2021/08/30 10:10:44;;;;;;;26.50;14.10;;;;;;;25.78;61.36;98240.58;1866419;76;27949;-60
2021/08/30 10:13:25;;;;;;;25.02;13.93;;;;;;;25.74;62.04;98250.47;1869824;76;22674;-59
2021/08/30 10:16:02;;;;;;;21.27;13.08;;;;;;;25.62;62.18;98240.69;1865867;76;22598;-62
2021/08/30 10:18:50;;;;;;;25.88;12.50;;;;;;;25.55;62.74;98245.48;1889889;76;22164;-57
2021/08/30 10:21:28;;;;;;;18.70;13.32;;;;;;;25.60;63.09;98254.46;1870750;76;22141;-58
2021/08/30 10:24:15;;;;;;;21.62;13.30;;;;;;;25.66;62.26;98255.39;1870730;76;22108;-54
2021/08/30 10:27:11;;;;;;;22.58;13.22;;;;;;;25.63;63.05;98270.59;1870600;76;22137;-59
2021/08/30 10:30:11;;;;;;;18.27;12.70;;;;;;;25.60;62.79;98263.70;1870646;76;22148;-59
2021/08/30 10:33:12;;;;;;;24.80;13.38;;;;;;;25.61;62.77;98242.93;1889882;76;22615;-58
2021/08/30 10:36:16;;;;;;;19.12;12.50;;;;;;;25.72;63.17;98252.83;1884581;76;22219;-58
2021/08/30 10:39:08;;;;;;;31.30;14.07;;;;;;;25.74;63.33;98254.91;1843106;76;22128;-58
2021/08/30 10:42:03;;;;;;;29.77;14.07;;;;;;;25.82;62.70;98251.79;1865269;76;22190;-63
2021/08/30 10:45:06;;;;;;;20.25;12.98;;;;;;;25.90;63.26;98240.28;1868373;76;22616;-57
2021/08/30 10:47:41;;;;;;;21.48;13.32;;;;;;;25.97;61.62;98243.77;1855677;76;22140;-62
2021/08/30 10:50:41;;;;;;;23.98;13.72;;;;;;;26.08;61.96;98260.73;1856288;76;22625;-59
2021/08/30 10:53:22;;;;;;;20.52;13.00;;;;;;;26.17;60.84;98258.36;1852128;76;22171;-57
2021/08/30 10:56:30;;;;;;;27.25;15.00;;;;;;;26.35;61.05;98255.00;1838347;76;28014;-61
2021/08/30 10:59:27;;;;;;;22.27;14.73;;;;;;;26.47;59.45;98250.72;1855177;76;22752;-57
2021/08/30 11:02:03;;;;;;;25.30;14.07;;;;;;;26.57;59.16;98249.68;1862487;76;22223;-55
2021/08/30 11:04:41;;;;;;;22.17;12.50;;;;;;;26.60;59.69;98250.31;1858299;76;22161;-56
2021/08/30 11:07:36;;;;;;;22.90;13.65;;;;;;;26.56;59.43;98260.75;1874919;76;22617;-63
2021/08/30 11:10:11;;;;;;;22.32;14.68;;;;;;;26.48;59.74;98251.08;1851878;76;28091;-60
2021/08/30 11:12:46;;;;;;;18.73;12.73;;;;;;;26.59;60.14;98242.02;1868155;76;22756;-60
2021/08/30 11:15:33;;;;;;;23.55;13.48;;;;;;;26.82;60.00;98239.64;1866962;76;22190;-62
2021/08/30 11:18:09;;;;;;;20.10;13.45;;;;;;;26.92;59.14;98228.80;1889542;76;22152;-59
2021/08/30 11:20:48;;;;;;;20.68;13.70;;;;;;;26.90;59.02;98253.20;1850736;76;22202;-58
2021/08/30 11:23:23;;;;;;;23.80;14.13;;;;;;;26.76;59.18;98251.94;1889951;76;22116;-59
2021/08/30 11:26:04;;;;;;;21.15;12.50;;;;;;;26.67;59.71;98232.23;1889448;76;22602;-57
2021/08/30 11:29:02;;;;;;;19.35;14.45;;;;;;;26.68;59.79;98248.96;1859419;76;22586;-62
2021/08/30 11:31:40;;;;;;;24.10;13.22;;;;;;;26.59;60.28;98231.91;1855511;76;22136;-65
2021/08/30 11:34:30;;;;;;;21.02;14.38;;;;;;;26.58;60.58;98236.33;1836508;76;28025;-59
2021/08/30 11:37:10;;;;;;;25.52;13.58;;;;;;;26.67;60.75;98235.37;1856403;76;22597;-64
2021/08/30 11:40:09;;;;;;;18.32;12.93;;;;;;;26.85;60.28;98250.86;1851757;76;22218;-61
2021/08/30 11:42:44;;;;;;;23.47;13.68;;;;;;;26.97;60.16;98243.90;1851917;76;22203;-61
2021/08/30 11:45:21;;;;;;;23.98;13.98;;;;;;;26.94;60.03;98252.02;1853632;76;22594;-61
2021/08/30 11:47:54;;;;;;;23.27;13.83;;;;;;;26.90;60.04;98248.39;1851459;76;22142;-61
2021/08/30 11:50:39;;;;;;;19.30;13.78;;;;;;;26.91;60.26;98244.78;1859373;76;22257;-58
2021/08/30 11:53:14;;;;;;;31.93;13.18;;;;;;;26.91;59.95;98253.56;1847504;76;22616;-63
2021/08/30 11:55:48;;;;;;;24.70;14.03;;;;;;;26.85;59.26;98253.98;1850656;76;22159;-58
2021/08/30 11:58:33;;;;;;;26.37;14.53;;;;;;;26.89;59.80;98240.89;1853030;76;22581;-62
2021/08/30 12:01:08;;;;;;;25.45;13.85;;;;;;;26.94;60.08;98226.88;1853506;76;22250;-62
2021/08/30 12:03:44;;;;;;;23.52;13.88;;;;;;;27.02;60.26;98240.47;1852994;76;22184;-61
2021/08/30 12:06:53;;;;;;;24.00;14.20;;;;;;;27.05;59.51;98240.25;1873877;76;28436;-62
2021/08/30 12:09:51;;;;;;;24.47;14.03;;;;;;;27.14;58.95;98236.11;1858695;76;22184;-61
2021/08/30 12:12:34;;;;;;;30.40;14.47;;;;;;;27.12;59.09;98237.17;1870759;76;22137;-63
2021/08/30 12:15:31;;;;;;;19.00;13.90;;;;;;;27.16;59.51;98235.53;1870182;76;22204;-58
2021/08/30 12:18:25;;;;;;;23.62;14.38;;;;;;;27.06;59.58;98234.47;1854331;76;27955;-62
2021/08/30 12:21:39;;;;;;;20.85;13.20;;;;;;;26.99;59.99;98234.50;1851602;76;22598;-61
2021/08/30 12:24:22;;;;;;;22.80;13.72;;;;;;;26.93;60.27;98230.48;1853647;76;22199;-60
2021/08/30 12:27:03;;;;;;;24.52;14.33;;;;;;;26.86;60.50;98245.08;1862581;76;22186;-59
2021/08/30 12:29:39;;;;;;;21.85;13.03;;;;;;;26.88;60.98;98259.07;1861912;76;22598;-64
2021/08/30 12:32:52;;;;;;;26.50;12.93;;;;;;;26.85;61.13;98253.98;1869864;76;22144;-58
2021/08/30 12:35:47;;;;;;;19.98;13.43;;;;;;;26.74;61.61;98252.52;1851805;76;22160;-57